Ottumwa Regional Airport
KOTM : rendu visible

Aérodrome :











RETROUVEZ-NOUS SUR...

 
LOGIN :

S'inscrire | Disclaimer

   EN    FR    IT 

 









Légende :    VFR   VFR Marginal   IFR   IFR Intensif   IFR Très Intensif
Visi : 
Plafond : 
>= 8 km
>= 3000ft
5 à 8 km
1000 à 3000 ft
1500m à 5 km
500 à 1000 ft
800 à 1500m
200 à 500 ft
< 800m
< 200 ft
Symboles :   Orages  Brouillard  Fortes neiges  Fortes précipitations  Vent > 20 kt






- Altitude de l'aérodrome : 845 ft
- Code IATA : OTM


KOTM - Ottumwa Regional

DERNIER METAR :
  • 080853Z AUTO 00000KT 10SM CLR 11/09 A2973 RMK AO2 SLP063 T01110089 58000

METARs EXPIRÉS :
  • 080753Z AUTO 00000KT 10SM CLR 10/08 A2973 RMK AO2 SLP064 T01000078
  • 080653Z AUTO 02006KT 10SM CLR 14/10 A2973 RMK AO2 SLP065 T01440100

TAF KOTM
Valide du 08 à 06h jusqu'au 09 à 06h UTC


080535Z 0806/0906 VRB06KT P6SM SKC
FM081800 22010G18KT P6SM VCSH SCT090 BKN150
FM082000 31017G27KT P6SM VCSH BKN060 OVC120
FM082300 33016G23KT P6SM SCT090 BKN150



MET'MAP, la Météo Aéronautique d'un coup d'oeil ! - Copyright ORBIFLY Décembre 2007 - Disclaimer

ORBIFLY MET'MAP TEAM :

Programmation & Développement : Alexandra Zaïnal
Sur une idée originale de : Baudouin d'Aumeries
Assistance à la programmation : Marc-Olivier Méhu
Soutien technique & logistique : Manuel Goepfert

Contact : metmap@orbifly.com




SOURCES & CREDITS :

   NOAA       Earth
Advisory